Humidity-temperature Sensor

Selected Measurement Type: Air Temperature

 
Air Temperature [°C]     6 entries per hour
Showing data from 12/7/2022 (00:00:00 Z) to 12/6/2022 (00:01:00 Z)
Previous Next [ Day | 3-Days | 7-Days ]
First Last
Prev [ Day | 3-Days | 7-Days ] Next
First Last

Start Time:     :
End Time:     :     
Time (in GMT) :00 :50 :40 :30 :20 :10
Previous Next [ Day | 3-Days | 7-Days ]
First Last
Prev [ Day | 3-Days | 7-Days ] Next
First Last


123 => good data
MM => data is determined as missing
-- => data not received/configured
Back to Top Back to Top
12/7/2022 00:00 to 23:10 25.95 25.67 25.52 25.65 25.71 25.74
12/6/2022 23:00 to 22:10 25.83 25.85 25.84 25.80 26.12 25.86
12/6/2022 22:00 to 21:10 25.83 25.89 26.06 26.07 25.66 25.60
12/6/2022 21:00 to 20:10 25.68 25.83 25.84 25.48 25.80 25.68
12/6/2022 20:00 to 19:10 25.50 25.66 25.66 25.53 25.54 25.39
12/6/2022 19:00 to 18:10 25.39 25.12 25.57 25.95 25.75 25.96
12/6/2022 18:00 to 17:10 25.96 26.30 25.89 25.85 26.03 26.02
12/6/2022 17:00 to 16:10 25.88 25.91 25.83 25.75 25.61 25.83
12/6/2022 16:00 to 15:10 25.70 25.62 25.62 25.58 25.47 25.52
12/6/2022 15:00 to 14:10 25.54 25.49 25.35 25.48 25.61 25.31
12/6/2022 14:00 to 13:10 25.11 25.29 25.50 25.54 25.52 25.51
12/6/2022 13:00 to 12:10 25.50 25.48 25.34 25.45 25.48 25.31
12/6/2022 12:00 to 11:10 25.15 25.38 25.41 25.36 25.55 25.57
12/6/2022 11:00 to 10:10 25.37 25.73 25.41 25.58 25.50 25.62
12/6/2022 10:00 to 9:10 25.28 25.25 25.78 25.48 25.55 25.49
12/6/2022 09:00 to 8:10 25.51 25.28 25.45 25.32 25.36 25.50
12/6/2022 08:00 to 7:10 25.37 25.34 25.42 25.44 25.22 25.55
12/6/2022 07:00 to 6:10 25.36 25.34 25.54 25.49 25.42 25.36
12/6/2022 06:00 to 5:10 25.42 25.69 25.54 25.49 25.53 25.47
12/6/2022 05:00 to 4:10 25.45 25.44 25.78 25.52 25.58 25.49
12/6/2022 04:00 to 3:10 25.64 25.50 25.55 25.74 25.57 25.55
12/6/2022 03:00 to 2:10 25.63 25.54 25.53 25.40 25.66 25.64
12/6/2022 02:00 to 1:10 25.51 25.52 25.55 25.58 25.52 25.63
12/6/2022 01:00 to 0:10 25.32 25.39 25.46 25.59 25.29 25.42